Baldwin, New York
Current Conditions -  °F | °C
As of 4:51 PM on Wednesday 28 Jan 2015 (Local Time) from KJFK Reporting Station
Clear Clear  
Wind Chill: 23°   Ceiling: Unl
Heat Index: 32°   Visibility: 10mi
Dew Point:   Wind: 13mph
Humidity: 38%   Direction: 350°N
Pressure: 30.14"   Gusts: NA
Location:  40.66°N, 73.61°W
Report Text: KJFK 282151Z 35011KT 10SM CLR 00/M13 A3014 RMK AO2 SLP204 T00001128 $
Loading
Personal Weather Stations






























Interactive Weather Map New forecast layout! Learn more

10-Day Weather Forecast

Advertisements
Track Severe Weather on mobile